• Join FlightAware (Why Join?)
  • Login
  • US Flag 
04:52PM EDT


 

Airport Tracker/Info


-or-


 

Live Flight TrackerFlight Track Log ✈ N589H ✈ 04-Apr-2014 ✈ KCLT - KPIE

Flight Track Log - Related Links

Times and Time Zones

All times are in EDT time to prevent confusion due to time zone crossing. See the N589H flight status page for this flight to view local times or setup timezone preferences in your user account.

Time Position Orientation Groundspeed Altitude Reporting Facility
EDT Latitude Longitude Course Direction KTS MPH feet Rate Location/Type
03:39AM 35.1975 -80.9533 174° South 136 157 1,700  Level Atlanta Center
03:41AM 35.1053 -80.9414 174° South 179 206 5,200 1,560 Climbing Atlanta Center
03:42AM 35.0475 -80.9564 192° South 222 255 6,700 1,500 Climbing Atlanta Center
03:44AM 34.9256 -80.9911 193° South 244 281 9,600 1,560 Climbing Jacksonville Center
03:45AM 34.8592 -81.0078 192° South 244 281 11,200 1,560 Climbing Jacksonville Center
03:46AM 34.7928 -81.0269 193° South 244 281 12,800 1,560 Climbing Jacksonville Center
03:47AM 34.7261 -81.0411 190° South 244 281 14,400 1,560 Climbing Jacksonville Center
03:48AM 34.6556 -81.0603 193° South 250 288 16,000 1,560 Climbing Jacksonville Center
03:49AM 34.5828 -81.0794 192° South 260 299 17,600 1,560 Climbing Jacksonville Center
03:50AM 34.5081 -81.0986 192° South 265 305 19,200 1,560 Climbing Jacksonville Center
03:51AM 34.4353 -81.1178 192° South 270 311 20,800 1,560 Climbing Jacksonville Center
03:52AM 34.3606 -81.1394 193° South 280 322 22,400 1,680 Climbing Jacksonville Center
03:53AM 34.2814 -81.1561 190° South 274 315 24,200 1,680 Climbing Jacksonville Center
03:54AM 34.2108 -81.1750 192° South 269 310 25,800 1,560 Climbing Jacksonville Center
03:55AM 34.1400 -81.1939 192° South 269 310 27,400 1,080 Climbing Jacksonville Center
03:56AM 34.0653 -81.2131 192° South 269 310 28,000 300 Climbing Jacksonville Center
03:57AM 33.9778 -81.2347 192° South 293 337 28,000  Level Jacksonville Center
03:58AM 33.8883 -81.2564 191° South 319 367 28,000  Level Jacksonville Center
03:59AM 33.7947 -81.2806 192° South 337 388 28,000  Level Jacksonville Center
04:00AM 33.7053 -81.3047 193° South 356 410 28,000  Level Jacksonville Center
04:01AM 33.6075 -81.3289 192° South 356 410 28,000  Level Jacksonville Center
04:02AM 33.5097 -81.3531 192° South 356 410 28,000  Level Jacksonville Center
04:03AM 33.4058 -81.3797 192° South 356 410 28,000  Level Jacksonville Center
04:04AM 33.3081 -81.4039 192° South 356 410 28,000  Level Jacksonville Center
04:05AM 33.2164 -81.4278 192° South 356 410 28,000  Level Jacksonville Center
04:06AM 33.1186 -81.4542 193° South 361 415 28,000  Level Jacksonville Center
04:07AM 33.0208 -81.4781 192° South 361 415 28,000  Level Jacksonville Center
04:08AM 32.9189 -81.5044 192° South 366 421 28,000  Level Jacksonville Center
04:09AM 32.8208 -81.5281 191° South 366 421 28,000  Level Jacksonville Center
04:10AM 32.7231 -81.5492 190° South 366 421 28,000  Level Jacksonville Center
04:11AM 32.6253 -81.5753 193° South 366 421 28,000  Level Jacksonville Center
04:12AM 32.5192 -81.6042 193° South 366 421 28,000  Level Jacksonville Center
04:13AM 32.4211 -81.6275 191° South 366 421 28,000  Level Jacksonville Center
04:14AM 32.3317 -81.6483 191° South 366 421 28,000  Level Jacksonville Center
04:15AM 32.2233 -81.6744 192° South 371 427 28,000  Level Jacksonville Center
04:16AM 32.1339 -81.6978 192° South 371 427 28,000  Level Jacksonville Center
04:17AM 32.0275 -81.7236 192° South 366 421 28,000  Level Jacksonville Center
04:18AM 31.9275 -81.7469 191° South 366 421 28,000  Level Jacksonville Center
04:19AM 31.8400 -81.7700 193° South 366 421 28,000  Level Jacksonville Center
04:20AM 31.7317 -81.7958 191° South 371 427 28,000  Level Jacksonville Center
04:21AM 31.6422 -81.8189 192° South 366 421 28,000  Level Jacksonville Center
04:22AM 31.5339 -81.8444 191° South 366 421 28,000  Level Jacksonville Center
04:23AM 31.4336 -81.8675 191° South 371 427 28,000  Level Jacksonville Center
04:24AM 31.3400 -81.8928 193° South 374 430 28,000  Level Jacksonville Center
04:25AM 31.2419 -81.9181 192° South 374 430 28,000  Level Jacksonville Center
04:26AM 31.1442 -81.9386 190° South 374 430 28,000  Level Jacksonville Center
04:27AM 31.0461 -81.9614 191° South 369 425 28,000  Level Jacksonville Center
04:28AM 30.9461 -81.9867 192° South 369 425 28,000  Level Jacksonville Center
04:29AM 30.8461 -82.0094 191° South 369 425 28,000  Level Jacksonville Center
04:30AM 30.7458 -82.0319 191° South 369 425 28,000  Level Jacksonville Center
04:31AM 30.6481 -82.0569 192° South 369 425 28,000  Level Jacksonville Center
04:32AM 30.5478 -82.0747 189° South 369 425 28,000  Level Jacksonville Center
04:33AM 30.4500 -82.0997 192° South 369 425 28,000  Level Jacksonville Center
04:34AM 30.3497 -82.1247 192° South 369 425 28,000  Level Jacksonville Center
04:35AM 30.2497 -82.1472 191° South 369 425 28,000  Level Jacksonville Center
04:36AM 30.1475 -82.1719 192° South 369 425 28,000  Level Jacksonville Center
04:37AM 30.0475 -82.1942 191° South 369 425 28,000  Level Jacksonville Center
04:38AM 29.9392 -82.2239 193° South 369 425 28,000  Level Jacksonville Center
04:39AM 29.8411 -82.2581 197° South 369 425 28,000 -540 Level Jacksonville Center
04:40AM 29.7472 -82.2778 190° South 369 425 27,000 -1,500 Descending Jacksonville Center
04:41AM 29.6450 -82.3119 196° South 375 432 25,000 -1,800 Descending Jacksonville Center
04:42AM 29.5472 -82.3386 193° South 368 423 23,500 -1,200 Descending Jacksonville Center
04:43AM 29.4511 -82.3678 195° South 362 417 22,600 -900 Descending Jacksonville Center
04:44AM 29.3575 -82.3969 195° South 355 409 21,700 -900 Descending Jacksonville Center
04:45AM 29.2636 -82.4261 195° South 355 409 20,800 -960 Descending Jacksonville Center
04:46AM 29.1697 -82.4525 194° South 355 409 19,800 -960 Descending Jacksonville Center
04:47AM 29.0781 -82.4817 196° South 355 409 18,900 -900 Descending Jacksonville Center
04:48AM 28.9883 -82.5103 196° South 349 402 18,000 -900 Descending Jacksonville Center
04:49AM 28.8944 -82.5344 193° South 344 396 17,100 -960 Descending Jacksonville Center
04:51AM 28.7000 -82.6000 196° South 327 376 15,200 -960 Descending Tampa TRACON
04:52AM 28.6167 -82.6167 190° South 320 368 14,300 -960 Descending Tampa TRACON
04:53AM 28.5167 -82.6500 196° South 318 366 13,300 -960 Descending Tampa TRACON
04:54AM 28.4500 -82.6667 192° South 318 366 12,500 -1,260 Descending Tampa TRACON
04:55AM 28.3667 -82.7000 199° South 312 359 11,000 -1,800 Descending Tampa TRACON
04:56AM 28.2833 -82.7167 190° South 295 339 9,000 -2,340 Descending Tampa TRACON
04:57AM 28.2167 -82.7333 192° South 277 319 6,400 -2,580 Descending Tampa TRACON
04:58AM 28.1500 -82.7333 180° South 235 270 3,800 -1,920 Descending Tampa TRACON
04:59AM 28.0833 -82.7167 168° South 184 212 2,600 -840 Descending Tampa TRACON
05:00AM 28.0333 -82.7167 180° South 161 185 2,200 -480 Descending Tampa TRACON
05:01AM 28.0000 -82.7000 156° South 126 145 1,700 -600 Descending Tampa TRACON
05:02AM 27.9667 -82.7000 180° South 112 129 1,000 -660 Descending Tampa TRACON
05:03AM 27.9333 -82.7000 180° South 123 142 400 -600 Descending Tampa TRACON